Airfield :
LOGIN :

Register | Disclaimer

   EN    FR    IT 

 










Legend :    VFR   Marginal VFR   IFR   Intensive IFR   Very Intensive IFR
Visi :
Ceiling :
>= 8 km
>= 3000ft
5 to 8 km
1000 to 3000 ft
1500m to 5 km
500 to 1000 ft
800 to 1500m
200 to 500 ft
< 800m
< 200 ft
Symbols :   Thunderstorms  Fog  Heavy snow  Heavy precipitations  Wind > 20 kt
SIGMETs :     Misc.  Thunderstorms  Icing  Turbulence  Mountain Waves  Volcanic Ashes






- Airport Elevation : -13 ft
- IATA code : LEY


EHLE - Lelystad

CURRENT METAR :
  • 290455Z AUTO 20011KT 9999 FEW026 14/12 Q1007

EXPIRED METARs :
  • 290425Z AUTO 20010KT 9999 FEW028 13/12 Q1007
  • 290355Z AUTO 21009KT 9999 NCD 13/12 Q1007
  • 290325Z AUTO 20010KT 9999 NCD 13/11 Q1007
  • 290255Z AUTO 21009KT 9999 FEW015CB 13/12 Q1007
  • 290225Z AUTO 24008KT 200V260 9999 DZ FEW015CB BKN040 14/12 Q1007 RERA REDZ

TAF TAF EHLE
Valid from the 29 at 00:00 until the 30 at 06:00 UTC


282302Z 2900/3006 21013KT 9999 SCT030
TEMPO 2900/2905 24017G27KT 5000 SHRA SCT020CB BKN030
BECMG 2906/2908 25017G27KT
BECMG 2916/2919 23013KT
BECMG 3001/3004 20007KT



MET'MAP, your aeronautical weather chart ! - Copyright ORBIFLY December 2007 - Disclaimer

ORBIFLY MET'MAP TEAM :

Programming & Development : Alexandra Zaïnal
Concept & original design : Baudouin d'Aumeries
Assistance for programming : Marc-Olivier Méhu
Technical & hardware support : Manuel Goepfert

Contact : metmap@orbifly.com




SOURCES & CREDITS :

   NOAA